createdAt,value
2023-02-04T00:00:21.004Z,88.52
2023-02-04T00:02:48.717Z,88.03
2023-02-04T00:05:18.750Z,87.97
2023-02-04T00:07:47.650Z,88.12
2023-02-04T00:10:15.487Z,88.93
2023-02-04T00:12:43.049Z,88.83
2023-02-04T00:15:11.340Z,88.58
2023-02-04T00:17:39.369Z,88.27
2023-02-04T00:20:07.748Z,88.54
2023-02-04T00:22:35.355Z,89.72
2023-02-04T00:25:04.322Z,88.23
2023-02-04T00:27:31.833Z,87.63
2023-02-04T00:29:59.751Z,88.10
2023-02-04T00:32:27.306Z,88.15
2023-02-04T00:34:55.193Z,88.95
2023-02-04T00:37:22.704Z,88.67
2023-02-04T00:39:50.317Z,89.18
2023-02-04T00:42:19.466Z,89.33
2023-02-04T00:44:47.174Z,89.92
2023-02-04T00:47:14.770Z,89.59
2023-02-04T00:49:42.353Z,89.78
2023-02-04T00:52:09.900Z,90.75
2023-02-04T00:54:37.434Z,90.95
2023-02-04T00:57:05.015Z,90.68
2023-02-04T00:59:34.157Z,89.94
2023-02-04T01:02:03.377Z,90.69
2023-02-04T01:04:31.197Z,91.28
2023-02-04T01:06:58.730Z,91.50
2023-02-04T01:09:27.798Z,91.98
2023-02-04T01:11:55.357Z,91.64
2023-02-04T01:14:22.936Z,91.11
2023-02-04T01:16:51.922Z,91.90
2023-02-04T01:19:20.985Z,91.60
2023-02-04T01:21:48.640Z,91.70
2023-02-04T01:24:16.202Z,91.42
2023-02-04T01:27:02.195Z,91.66
2023-02-04T01:29:29.802Z,91.81
2023-02-04T01:31:58.742Z,92.65
2023-02-04T01:34:26.449Z,92.31
2023-02-04T01:36:54.044Z,92.47
2023-02-04T01:39:21.612Z,92.79
2023-02-04T01:41:49.365Z,93.20
2023-02-04T01:44:17.274Z,92.52
2023-02-04T01:46:44.813Z,92.22
2023-02-04T01:49:13.819Z,93.65
2023-02-04T01:51:41.375Z,93.80
2023-02-04T01:54:12.758Z,93.81
2023-02-04T01:56:41.685Z,94.27
2023-02-04T01:59:13.452Z,93.33
2023-02-04T02:01:42.869Z,93.69
2023-02-04T02:04:11.475Z,94.35
2023-02-04T02:06:45.208Z,94.72
2023-02-04T02:09:12.819Z,94.24
2023-02-04T02:11:40.435Z,94.54
2023-02-04T02:14:08.020Z,95.55
2023-02-04T02:16:35.637Z,94.98
2023-02-04T02:19:03.313Z,95.73
2023-02-04T02:21:35.980Z,95.92
2023-02-04T02:24:26.063Z,96.04
2023-02-04T02:26:55.597Z,95.21
2023-02-04T02:29:26.376Z,94.24
2023-02-04T02:31:54.555Z,94.84
2023-02-04T02:34:22.128Z,94.04
2023-02-04T02:36:49.662Z,93.81
2023-02-04T02:39:19.332Z,94.20
2023-02-04T02:41:47.196Z,94.13
2023-02-04T02:44:16.320Z,93.87
2023-02-04T02:46:44.077Z,94.14
2023-02-04T02:49:15.102Z,94.96
2023-02-04T02:51:42.922Z,94.65
2023-02-04T02:54:20.716Z,95.65
2023-02-04T02:56:49.757Z,96.53
2023-02-04T02:59:18.649Z,96.76
2023-02-04T03:01:48.957Z,96.93
2023-02-04T03:04:19.255Z,96.45
2023-02-04T03:06:47.051Z,97.21
2023-02-04T03:09:14.926Z,97.20
2023-02-04T03:11:42.652Z,97.08
2023-02-04T03:14:11.549Z,97.17
2023-02-04T03:16:40.410Z,96.31
2023-02-04T03:19:09.403Z,96.45
2023-02-04T03:21:37.858Z,95.47
2023-02-04T03:24:06.543Z,96.50
2023-02-04T03:26:34.442Z,96.36
2023-02-04T03:29:02.218Z,96.02
2023-02-04T03:31:31.351Z,95.93
2023-02-04T03:33:58.940Z,96.27
2023-02-04T03:36:26.458Z,96.28
2023-02-04T03:38:54.154Z,95.94
2023-02-04T03:41:22.591Z,96.22
2023-02-04T03:43:50.142Z,97.50
2023-02-04T03:46:17.682Z,97.67
2023-02-04T03:48:46.618Z,98.09
2023-02-04T03:51:14.177Z,97.71
2023-02-04T03:53:41.686Z,98.17
2023-02-04T03:56:10.332Z,97.12
2023-02-04T03:58:37.902Z,96.96
2023-02-04T04:01:05.614Z,97.84
2023-02-04T04:03:33.204Z,97.46
2023-02-04T04:06:02.098Z,97.36
2023-02-04T04:08:29.697Z,97.16
2023-02-04T04:10:57.176Z,97.24
2023-02-04T04:13:24.813Z,97.08
2023-02-04T04:15:52.424Z,96.83
2023-02-04T04:18:19.992Z,96.06
2023-02-04T04:20:47.551Z,96.70
2023-02-04T04:23:16.478Z,96.41
2023-02-04T04:25:43.963Z,96.21
2023-02-04T04:28:11.546Z,96.57
2023-02-04T04:30:39.506Z,96.64
2023-02-04T04:33:07.115Z,96.41
2023-02-04T04:35:34.766Z,96.31
2023-02-04T04:38:02.422Z,95.95
2023-02-04T04:40:31.890Z,95.21
2023-02-04T04:42:59.621Z,96.10
2023-02-04T04:45:27.205Z,96.45
2023-02-04T04:47:54.901Z,96.07
2023-02-04T04:50:22.698Z,96.31
2023-02-04T04:52:50.214Z,96.26
2023-02-04T04:55:18.231Z,95.64
2023-02-04T04:57:47.078Z,94.89
2023-02-04T05:00:18.186Z,94.54
2023-02-04T05:02:45.939Z,95.48
2023-02-04T05:05:14.358Z,96.06
2023-02-04T05:07:41.934Z,96.19
2023-02-04T05:10:10.470Z,95.88
2023-02-04T05:12:38.306Z,95.87
2023-02-04T05:15:07.772Z,95.81
2023-02-04T05:17:35.385Z,96.59
2023-02-04T05:20:02.946Z,96.32
2023-02-04T05:22:30.520Z,95.55
2023-02-04T05:24:58.044Z,96.30
2023-02-04T05:27:25.682Z,95.91
2023-02-04T05:29:53.252Z,95.79
2023-02-04T05:32:22.126Z,95.79
2023-02-04T05:34:49.644Z,96.04
2023-02-04T05:37:18.989Z,95.40
2023-02-04T05:39:47.233Z,97.07
2023-02-04T05:42:14.784Z,96.96
2023-02-04T05:44:42.323Z,96.03
2023-02-04T05:47:09.884Z,95.92
2023-02-04T05:49:38.741Z,95.91
2023-02-04T05:52:06.285Z,94.96
2023-02-04T05:54:34.193Z,95.95
2023-02-04T05:57:01.710Z,95.07
2023-02-04T05:59:29.202Z,94.71
2023-02-04T06:01:56.714Z,94.60
2023-02-04T06:04:24.310Z,95.17
2023-02-04T06:06:53.240Z,94.50
2023-02-04T06:09:20.852Z,93.68
2023-02-04T06:11:48.370Z,94.69
2023-02-04T06:14:15.921Z,94.68
2023-02-04T06:16:43.493Z,95.64
2023-02-04T06:19:11.009Z,96.11
2023-02-04T06:21:38.532Z,95.87
2023-02-04T06:24:07.618Z,95.50
2023-02-04T06:26:35.129Z,95.83
2023-02-04T06:29:02.751Z,96.00
2023-02-04T06:31:30.463Z,95.77
2023-02-04T06:33:58.116Z,94.14
2023-02-04T06:36:25.647Z,94.73
2023-02-04T06:38:53.194Z,95.48
2023-02-04T06:41:22.160Z,95.61
2023-02-04T06:43:49.679Z,96.33
2023-02-04T06:46:17.418Z,95.93
2023-02-04T06:48:45.016Z,97.25
2023-02-04T06:51:12.541Z,97.05
2023-02-04T06:53:40.226Z,97.38
2023-02-04T06:56:07.858Z,96.22
2023-02-04T06:58:36.690Z,95.97
2023-02-04T07:01:06.265Z,96.68
2023-02-04T07:03:33.935Z,95.50
2023-02-04T07:06:01.543Z,95.03
2023-02-04T07:08:29.122Z,95.15
2023-02-04T07:10:56.633Z,94.02
2023-02-04T07:13:24.220Z,94.31
2023-02-04T07:15:53.590Z,94.68
2023-02-04T07:18:21.240Z,94.55
2023-02-04T07:20:48.888Z,94.42
2023-02-04T07:23:16.432Z,95.25
2023-02-04T07:25:44.920Z,94.18
2023-02-04T07:28:12.542Z,94.36
2023-02-04T07:30:40.196Z,94.65
2023-02-04T07:33:09.172Z,94.36
2023-02-04T07:35:37.922Z,94.15
2023-02-04T07:38:05.566Z,94.62
2023-02-04T07:40:33.541Z,95.35
2023-02-04T07:43:01.403Z,96.16
2023-02-04T07:45:30.072Z,96.74
2023-02-04T07:47:57.584Z,96.10
2023-02-04T07:50:26.437Z,95.95
2023-02-04T07:52:54.024Z,96.07
2023-02-04T07:55:21.598Z,95.21
2023-02-04T07:57:49.181Z,95.19
2023-02-04T08:00:17.225Z,95.64
2023-02-04T08:02:44.844Z,95.03
2023-02-04T08:05:12.454Z,95.46
2023-02-04T08:07:41.325Z,94.78
2023-02-04T08:10:11.035Z,94.85
2023-02-04T08:12:38.894Z,94.14
2023-02-04T08:15:08.401Z,95.65
2023-02-04T08:17:35.992Z,95.58
2023-02-04T08:20:04.369Z,94.80
2023-02-04T08:22:31.902Z,94.89
2023-02-04T08:25:00.802Z,95.09
2023-02-04T08:27:28.506Z,94.44
2023-02-04T08:29:56.231Z,94.39
2023-02-04T08:32:23.799Z,93.08
2023-02-04T08:34:51.340Z,94.06
2023-02-04T08:37:18.923Z,93.25
2023-02-04T08:39:47.377Z,92.35
2023-02-04T08:42:16.467Z,92.17
2023-02-04T08:44:44.403Z,91.89
2023-02-04T08:47:12.350Z,91.27
2023-02-04T08:49:39.905Z,90.54
2023-02-04T08:52:07.932Z,91.20
2023-02-04T08:54:36.240Z,90.04
2023-02-04T08:57:04.092Z,89.75
2023-02-04T08:59:32.943Z,88.65
2023-02-04T09:02:00.534Z,88.39
2023-02-04T09:04:29.033Z,88.29
2023-02-04T09:06:56.706Z,87.53
2023-02-04T09:09:26.209Z,88.04
2023-02-04T09:11:53.965Z,88.27
2023-02-04T09:14:21.534Z,87.42
2023-02-04T09:16:50.398Z,86.82
2023-02-04T09:19:23.879Z,86.81
2023-02-04T09:21:51.481Z,85.82
2023-02-04T09:24:19.169Z,86.44
2023-02-04T09:26:46.751Z,85.73
2023-02-04T09:29:14.317Z,85.10
2023-02-04T09:31:41.862Z,84.50
2023-02-04T09:34:10.870Z,84.25
2023-02-04T09:36:39.125Z,83.73
2023-02-04T09:39:06.995Z,83.54
2023-02-04T09:41:35.450Z,82.75
2023-02-04T09:44:05.247Z,82.72
2023-02-04T09:46:34.071Z,83.07
2023-02-04T09:49:03.313Z,82.58
2023-02-04T09:51:35.354Z,81.42
2023-02-04T09:54:09.733Z,81.09
2023-02-04T09:56:37.385Z,81.21
2023-02-04T09:59:06.273Z,80.14
2023-02-04T10:01:34.069Z,80.99
2023-02-04T10:04:02.806Z,81.59
2023-02-04T10:06:31.758Z,80.83
2023-02-04T10:09:00.621Z,79.61
2023-02-04T10:11:32.940Z,79.16
2023-02-04T10:14:00.693Z,78.26
2023-02-04T10:16:31.557Z,77.83
2023-02-04T10:19:00.574Z,78.53
2023-02-04T10:21:32.053Z,78.22
2023-02-04T10:24:03.506Z,77.46
2023-02-04T10:26:32.859Z,77.33
2023-02-04T10:29:01.822Z,76.42
2023-02-04T10:31:32.985Z,75.71
2023-02-04T10:34:05.221Z,75.12
2023-02-04T10:36:32.958Z,76.45
2023-02-04T10:39:02.481Z,76.59
2023-02-04T10:41:30.432Z,75.97
2023-02-04T10:44:05.878Z,75.94
2023-02-04T10:46:33.704Z,75.55
2023-02-04T10:49:01.294Z,75.14
2023-02-04T10:51:29.268Z,74.76
2023-02-04T10:54:14.305Z,74.80
2023-02-04T10:56:43.501Z,74.07
2023-02-04T10:59:26.744Z,75.27
2023-02-04T11:01:56.050Z,75.46
2023-02-04T11:04:24.481Z,75.43
2023-02-04T11:06:55.546Z,76.44
2023-02-04T11:09:23.239Z,76.66
2023-02-04T11:11:52.695Z,75.71
2023-02-04T11:14:28.363Z,75.63
2023-02-04T11:17:00.706Z,74.25
2023-02-04T11:19:35.201Z,76.23
2023-02-04T11:22:23.241Z,75.60
2023-02-04T11:24:51.751Z,75.74
2023-02-04T11:27:24.301Z,75.88
2023-02-04T11:29:52.163Z,74.78
2023-02-04T11:32:32.519Z,76.75
2023-02-04T11:35:27.449Z,75.73
2023-02-04T11:37:56.031Z,76.01
2023-02-04T11:40:27.857Z,76.29
2023-02-04T11:43:02.169Z,75.17
2023-02-04T11:45:33.858Z,74.66
2023-02-04T11:48:04.512Z,74.92
2023-02-04T11:50:34.441Z,73.45
2023-02-04T11:53:02.966Z,73.64
2023-02-04T11:55:32.198Z,73.38
2023-02-04T11:58:01.611Z,72.75
2023-02-04T12:00:33.449Z,73.29
2023-02-04T12:03:06.060Z,73.19
2023-02-04T12:05:40.981Z,73.95
2023-02-04T12:08:13.728Z,74.23
2023-02-04T12:10:49.314Z,73.97
2023-02-04T12:13:20.600Z,74.46
2023-02-04T12:15:55.686Z,73.70
2023-02-04T12:18:23.293Z,73.84
2023-02-04T12:20:50.844Z,73.74
2023-02-04T12:23:18.359Z,73.40
2023-02-04T12:25:45.930Z,73.67
2023-02-04T12:28:13.510Z,74.45
2023-02-04T12:30:42.542Z,74.23
2023-02-04T12:33:10.140Z,69.24
2023-02-04T12:35:37.742Z,68.58
2023-02-04T12:38:05.561Z,67.76
2023-02-04T12:40:33.238Z,68.46
2023-02-04T12:43:00.816Z,71.26
2023-02-04T12:45:28.327Z,71.68
2023-02-04T12:47:57.245Z,72.46
2023-02-04T12:50:26.071Z,71.79
2023-02-04T12:52:55.524Z,71.28
2023-02-04T12:55:24.656Z,72.05
2023-02-04T12:57:52.353Z,71.85
2023-02-04T13:00:22.097Z,71.75
2023-02-04T13:02:50.292Z,70.24
2023-02-04T13:05:19.720Z,72.43
2023-02-04T13:07:47.603Z,72.10
2023-02-04T13:10:15.892Z,72.04
2023-02-04T13:12:43.455Z,70.44
2023-02-04T13:15:11.434Z,70.45
2023-02-04T13:17:39.161Z,71.70
2023-02-04T13:20:08.038Z,70.07
2023-02-04T13:22:36.923Z,68.96
2023-02-04T13:25:04.917Z,66.65
2023-02-04T13:27:32.707Z,67.44
2023-02-04T13:30:00.261Z,66.75
2023-02-04T13:32:27.947Z,67.31
2023-02-04T13:34:55.451Z,67.94
2023-02-04T13:37:23.159Z,66.50
2023-02-04T13:39:52.035Z,66.13
2023-02-04T13:42:19.639Z,67.49
2023-02-04T13:44:47.143Z,68.94
2023-02-04T13:47:14.673Z,68.08
2023-02-04T13:49:42.251Z,68.36
2023-02-04T13:52:09.900Z,67.15
2023-02-04T13:54:37.546Z,67.69
2023-02-04T13:57:06.421Z,66.30
2023-02-04T13:59:33.938Z,67.21
2023-02-04T14:02:02.963Z,66.78
2023-02-04T14:04:30.608Z,68.02
2023-02-04T14:06:58.173Z,68.64
2023-02-04T14:09:25.949Z,69.97
2023-02-04T14:11:53.503Z,68.72
2023-02-04T14:14:22.392Z,69.00
2023-02-04T14:16:50.012Z,70.01
2023-02-04T14:19:17.787Z,69.79
2023-02-04T14:21:46.301Z,70.16
2023-02-04T14:24:13.834Z,71.01
2023-02-04T14:26:41.354Z,72.03
2023-02-04T14:29:08.874Z,72.17
2023-02-04T14:31:37.809Z,72.71
2023-02-04T14:34:05.515Z,72.20
2023-02-04T14:36:33.070Z,72.58
2023-02-04T14:39:00.576Z,73.38
2023-02-04T14:41:30.074Z,73.21
2023-02-04T14:43:57.754Z,72.63
2023-02-04T14:46:25.427Z,72.50
2023-02-04T14:48:54.565Z,73.09
2023-02-04T14:51:22.161Z,72.76
2023-02-04T14:53:49.670Z,73.39
2023-02-04T14:56:18.197Z,74.21
2023-02-04T14:58:46.308Z,73.30
2023-02-04T15:01:13.878Z,73.88
2023-02-04T15:03:41.426Z,74.74
2023-02-04T15:06:10.389Z,76.23
2023-02-04T15:08:38.125Z,74.46
2023-02-04T15:11:06.297Z,74.54
2023-02-04T15:13:33.855Z,74.57
2023-02-04T15:16:01.431Z,74.42
2023-02-04T15:18:29.661Z,75.46
2023-02-04T15:20:57.221Z,75.21
2023-02-04T15:23:26.224Z,75.09
2023-02-04T15:25:57.268Z,76.08
2023-02-04T15:28:25.012Z,76.29
2023-02-04T15:30:52.653Z,75.98
2023-02-04T15:33:20.304Z,75.91
2023-02-04T15:35:47.825Z,75.80
2023-02-04T15:38:15.384Z,76.08
2023-02-04T15:40:44.241Z,76.59
2023-02-04T15:43:11.767Z,77.18
2023-02-04T15:45:41.425Z,77.38
2023-02-04T15:48:09.098Z,77.63
2023-02-04T15:50:36.679Z,76.73
2023-02-04T15:53:04.800Z,76.43
2023-02-04T15:55:32.369Z,76.49
2023-02-04T15:58:01.499Z,75.82
2023-02-04T16:00:29.053Z,76.36
2023-02-04T16:02:56.710Z,76.12
2023-02-04T16:05:24.356Z,77.65
2023-02-04T16:07:51.933Z,76.82
2023-02-04T16:10:20.157Z,77.41
2023-02-04T16:12:48.173Z,76.80
2023-02-04T16:15:17.138Z,77.15
2023-02-04T16:17:44.773Z,77.14
2023-02-04T16:20:12.578Z,77.54
2023-02-04T16:22:40.127Z,77.03
2023-02-04T16:25:08.225Z,77.01
2023-02-04T16:27:35.831Z,76.88
2023-02-04T16:30:03.507Z,76.97
2023-02-04T16:32:33.569Z,76.28
2023-02-04T16:35:02.301Z,76.70
2023-02-04T16:37:29.801Z,77.74
2023-02-04T16:39:57.550Z,77.70
2023-02-04T16:42:25.128Z,77.90
2023-02-04T16:44:52.628Z,77.26
2023-02-04T16:47:20.537Z,77.79
2023-02-04T16:49:49.651Z,77.62
2023-02-04T16:52:17.188Z,76.97
2023-02-04T16:54:45.054Z,77.19
2023-02-04T16:57:14.506Z,77.65
2023-02-04T16:59:42.134Z,77.48
2023-02-04T17:02:11.004Z,77.41
2023-02-04T17:04:38.572Z,77.29
2023-02-04T17:07:07.628Z,78.64
2023-02-04T17:09:35.208Z,77.96
2023-02-04T17:12:02.734Z,78.40
2023-02-04T17:14:30.275Z,78.23
2023-02-04T17:16:57.825Z,78.38
2023-02-04T17:19:25.378Z,78.73
2023-02-04T17:21:52.938Z,77.94
2023-02-04T17:24:21.852Z,78.27
2023-02-04T17:26:49.436Z,78.39
2023-02-04T17:29:18.334Z,79.08
2023-02-04T17:31:45.916Z,78.56
2023-02-04T17:34:13.461Z,78.28
2023-02-04T17:36:40.981Z,78.34
2023-02-04T17:39:08.564Z,78.38
2023-02-04T17:41:37.442Z,78.52
2023-02-04T17:44:05.333Z,79.12
2023-02-04T17:46:34.224Z,77.76
2023-02-04T17:49:01.883Z,79.31
2023-02-04T17:51:29.540Z,78.98
2023-02-04T17:53:57.102Z,78.74
2023-02-04T17:56:26.010Z,77.70
2023-02-04T17:58:55.549Z,78.22
2023-02-04T18:01:25.252Z,78.90
2023-02-04T18:03:53.088Z,79.14
2023-02-04T18:06:23.735Z,79.59
2023-02-04T18:08:52.806Z,79.30
2023-02-04T18:11:22.359Z,80.05
2023-02-04T18:13:50.246Z,79.42
2023-02-04T18:16:25.649Z,80.70
2023-02-04T18:18:55.116Z,82.78
2023-02-04T18:21:24.977Z,80.31
2023-02-04T18:24:01.449Z,81.46
2023-02-04T18:26:29.449Z,80.42
2023-02-04T18:28:57.026Z,79.86
2023-02-04T18:31:35.563Z,79.79
2023-02-04T18:34:12.138Z,79.93
2023-02-04T18:36:39.754Z,80.44
2023-02-04T18:39:16.458Z,81.02
2023-02-04T18:41:45.798Z,81.45
2023-02-04T18:44:30.557Z,81.34
2023-02-04T18:47:00.710Z,81.41
2023-02-04T18:49:29.795Z,81.25
2023-02-04T18:51:59.503Z,81.20
2023-02-04T18:54:36.721Z,81.34
2023-02-04T18:57:29.671Z,80.43
2023-02-04T19:00:27.391Z,80.87
2023-02-04T19:02:58.819Z,80.77
2023-02-04T19:05:30.646Z,81.47
2023-02-04T19:08:17.617Z,81.53
2023-02-04T19:10:45.150Z,82.13
2023-02-04T19:13:22.056Z,81.23
2023-02-04T19:16:17.298Z,81.76
2023-02-04T19:18:46.937Z,82.23
2023-02-04T19:21:23.312Z,82.34
2023-02-04T19:23:52.028Z,82.29
2023-02-04T19:26:39.733Z,82.26
2023-02-04T19:29:41.042Z,82.87
2023-02-04T19:32:22.650Z,82.85
2023-02-04T19:34:53.203Z,82.71
2023-02-04T19:37:24.550Z,82.85
2023-02-04T19:39:53.672Z,82.99
2023-02-04T19:42:29.382Z,82.93
2023-02-04T19:44:59.368Z,83.36
2023-02-04T19:47:29.656Z,82.90
2023-02-04T19:50:11.412Z,82.98
2023-02-04T19:52:43.773Z,83.18
2023-02-04T19:55:29.085Z,84.13
2023-02-04T19:57:59.977Z,83.64
2023-02-04T20:00:37.070Z,83.81
2023-02-04T20:03:15.349Z,83.92
2023-02-04T20:05:44.459Z,83.70
2023-02-04T20:08:42.119Z,83.63
2023-02-04T20:11:35.741Z,83.95
2023-02-04T20:14:21.041Z,84.99
2023-02-04T20:16:52.387Z,84.93
2023-02-04T20:19:22.781Z,84.39
2023-02-04T20:22:04.026Z,84.30
2023-02-04T20:24:36.028Z,84.40
2023-02-04T20:27:11.941Z,84.11
2023-02-04T20:29:39.477Z,83.79
2023-02-04T20:32:15.960Z,83.69
2023-02-04T20:34:43.584Z,83.39
2023-02-04T20:37:24.043Z,84.37
2023-02-04T20:39:51.636Z,84.10
2023-02-04T20:42:28.667Z,84.65
2023-02-04T20:45:00.188Z,83.69
2023-02-04T20:47:30.818Z,84.01
2023-02-04T20:50:00.033Z,83.92
2023-02-04T20:53:04.943Z,84.12
2023-02-04T20:55:35.710Z,83.68
2023-02-04T20:58:16.162Z,84.36
2023-02-04T21:00:44.900Z,84.96
2023-02-04T21:03:29.027Z,84.74
2023-02-04T21:05:58.861Z,84.22
2023-02-04T21:08:36.977Z,85.04
2023-02-04T21:11:06.381Z,84.83
2023-02-04T21:13:34.107Z,85.28
2023-02-04T21:16:01.772Z,85.89
2023-02-04T21:18:30.405Z,86.08
2023-02-04T21:20:58.142Z,86.05
2023-02-04T21:23:25.722Z,85.84
2023-02-04T21:25:53.288Z,86.47
2023-02-04T21:28:22.157Z,86.67
2023-02-04T21:30:49.859Z,86.15
2023-02-04T21:33:17.465Z,86.85
2023-02-04T21:35:45.097Z,86.34
2023-02-04T21:38:12.692Z,86.62
2023-02-04T21:40:40.460Z,86.39
2023-02-04T21:43:08.562Z,86.66
2023-02-04T21:45:39.651Z,86.23
2023-02-04T21:48:08.715Z,86.32
2023-02-04T21:50:38.257Z,86.32
2023-02-04T21:53:06.527Z,87.65
2023-02-04T21:55:34.840Z,87.44
2023-02-04T21:58:02.893Z,88.26
2023-02-04T22:00:30.630Z,87.51
2023-02-04T22:02:59.563Z,87.59
2023-02-04T22:05:27.191Z,88.15
2023-02-04T22:07:54.755Z,87.91
2023-02-04T22:10:25.127Z,87.82
2023-02-04T22:12:53.353Z,87.80
2023-02-04T22:15:24.186Z,88.36
2023-02-04T22:17:52.849Z,88.04
2023-02-04T22:20:23.289Z,89.11
2023-02-04T22:22:51.204Z,89.04
2023-02-04T22:25:21.198Z,88.65
2023-02-04T22:27:49.174Z,89.19
2023-02-04T22:30:17.927Z,89.32
2023-02-04T22:32:45.698Z,89.12
2023-02-04T22:35:13.921Z,89.06
2023-02-04T22:37:43.574Z,89.30
2023-02-04T22:40:12.870Z,90.08
2023-02-04T22:42:40.479Z,89.59
2023-02-04T22:45:10.103Z,90.36
2023-02-04T22:47:37.677Z,90.53
2023-02-04T22:50:05.418Z,90.20
2023-02-04T22:52:32.934Z,90.32
2023-02-04T22:55:01.781Z,90.32
2023-02-04T22:57:29.291Z,90.57
2023-02-04T22:59:56.799Z,90.11
2023-02-04T23:02:24.379Z,90.29
2023-02-04T23:04:52.012Z,91.48
2023-02-04T23:07:19.740Z,91.09
2023-02-04T23:09:47.324Z,91.03
2023-02-04T23:12:16.212Z,91.28
2023-02-04T23:14:45.967Z,90.57
2023-02-04T23:17:14.697Z,90.43
2023-02-04T23:19:42.681Z,91.19
2023-02-04T23:22:12.141Z,90.83
2023-02-04T23:24:40.072Z,91.68
2023-02-04T23:27:10.806Z,91.55
2023-02-04T23:29:40.572Z,90.91
2023-02-04T23:32:08.771Z,91.24
2023-02-04T23:34:36.689Z,91.30
2023-02-04T23:37:04.265Z,91.78
2023-02-04T23:39:31.902Z,91.60
2023-02-04T23:41:59.514Z,91.35
2023-02-04T23:44:27.217Z,91.45
2023-02-04T23:46:56.067Z,91.09
2023-02-04T23:49:23.630Z,91.93
2023-02-04T23:51:51.166Z,92.29
2023-02-04T23:54:18.724Z,92.22
2023-02-04T23:56:46.341Z,92.01
2023-02-04T23:59:13.843Z,92.75
